Time;durP1;ratioP1;P1;durP2;ratioP2;P2;SDS_P1;SDS_P2;PMS_P1;PMS_P2;Temp;Humidity;BMP_temperature;BMP_pressure;BME280_temperature;BME280_humidity;BME280_pressure;Samples;Min_cycle;Max_cycle;Signal;HPM_P1;HPM_P2
2022/11/24 00:02:01;;;;;;;52.50;23.02;;;0.00;99.90;;;;;;5053462;28;20486;-69
2022/11/24 00:04:27;;;;;;;56.17;27.38;;;0.00;99.90;;;;;;5052335;28;20033;-67
2022/11/24 00:06:52;;;;;;;49.55;20.98;;;0.00;99.90;;;;;;5056325;28;20021;-74
2022/11/24 00:09:18;;;;;;;37.20;18.25;;;0.10;99.90;;;;;;5073477;28;20052;-74
2022/11/24 00:11:44;;;;;;;47.28;19.60;;;0.00;99.90;;;;;;5067485;28;20013;-68
2022/11/24 00:14:11;;;;;;;42.95;17.75;;;0.00;99.90;;;;;;5052022;28;20013;-68
2022/11/24 00:16:37;;;;;;;36.10;15.85;;;0.00;99.90;;;;;;5053481;28;20020;-74
2022/11/24 00:19:08;;;;;;;45.40;19.23;;;0.00;99.90;;;;;;5053458;28;20025;-67
2022/11/24 00:21:35;;;;;;;47.13;18.95;;;0.00;99.90;;;;;;5053319;28;20017;-68
2022/11/24 00:24:01;;;;;;;40.78;19.02;;;0.00;99.90;;;;;;5053225;28;20108;-69
2022/11/24 00:26:28;;;;;;;37.58;17.65;;;0.00;99.90;;;;;;5053225;28;20059;-74
2022/11/24 00:28:56;;;;;;;40.50;18.10;;;0.00;99.90;;;;;;5053124;28;20517;-74
2022/11/24 00:31:28;;;;;;;40.90;19.50;;;0.10;99.90;;;;;;5053030;28;20066;-69
2022/11/24 00:33:56;;;;;;;39.42;16.67;;;0.10;99.90;;;;;;5051875;28;20382;-68
2022/11/24 00:36:23;;;;;;;35.13;19.27;;;0.10;99.90;;;;;;5053096;28;20122;-68
2022/11/24 00:39:00;;;;;;;42.90;19.08;;;0.10;99.90;;;;;;5053039;28;20020;-74
2022/11/24 00:41:27;;;;;;;36.85;16.52;;;0.10;99.90;;;;;;5053073;28;20082;-68
2022/11/24 00:43:53;;;;;;;32.47;14.70;;;0.10;99.90;;;;;;5052960;28;20048;-74
2022/11/24 00:46:20;;;;;;;32.70;14.32;;;0.10;99.90;;;;;;5052989;28;20028;-68
2022/11/24 00:48:46;;;;;;;34.92;16.02;;;0.10;99.90;;;;;;5053008;28;20056;-74
2022/11/24 00:51:14;;;;;;;33.22;15.95;;;0.10;99.90;;;;;;5053103;28;20029;-74
2022/11/24 00:53:40;;;;;;;40.20;17.88;;;0.20;99.90;;;;;;5052916;28;20021;-68
2022/11/24 00:56:06;;;;;;;36.05;17.75;;;0.20;99.90;;;;;;5051663;28;20049;-74
2022/11/24 00:58:32;;;;;;;38.50;17.85;;;0.20;99.90;;;;;;5052864;28;20025;-68
2022/11/24 01:01:07;;;;;;;33.45;14.80;;;0.20;99.90;;;;;;5052940;28;20375;-73
2022/11/24 01:03:33;;;;;;;35.35;16.92;;;0.20;99.90;;;;;;5052798;28;20368;-68
2022/11/24 01:06:04;;;;;;;42.90;19.08;;;0.20;99.90;;;;;;5053384;28;20025;-68
2022/11/24 01:08:30;;;;;;;38.13;18.75;;;0.20;99.90;;;;;;5073334;28;20086;-74
2022/11/24 01:11:13;;;;;;;41.75;17.92;;;0.30;99.90;;;;;;5076983;28;20416;-74
2022/11/24 01:13:40;;;;;;;44.45;19.92;;;0.30;99.90;;;;;;5036811;28;20032;-74
2022/11/24 01:16:22;;;;;;;59.80;24.27;;;0.30;99.90;;;;;;5036966;28;20399;-67
2022/11/24 01:18:48;;;;;;;65.50;26.98;;;0.30;99.90;;;;;;5036753;28;20372;-74
2022/11/24 01:21:15;;;;;;;62.60;26.25;;;0.30;99.90;;;;;;5036779;28;20143;-74
2022/11/24 01:23:40;;;;;;;66.85;28.20;;;0.30;99.90;;;;;;5036480;28;20075;-73
2022/11/24 01:26:08;;;;;;;61.05;25.10;;;0.30;99.90;;;;;;5036730;28;20100;-69
2022/11/24 01:28:34;;;;;;;63.60;23.05;;;0.30;99.90;;;;;;5036400;28;20025;-74
2022/11/24 01:31:02;;;;;;;46.10;21.33;;;0.30;99.90;;;;;;5036525;28;20109;-74
2022/11/24 01:33:28;;;;;;;46.35;20.30;;;0.30;99.90;;;;;;5036372;28;20096;-74
2022/11/24 01:35:54;;;;;;;46.80;21.88;;;0.30;99.90;;;;;;5035306;28;20120;-67
2022/11/24 01:38:20;;;;;;;42.58;19.98;;;0.30;99.90;;;;;;5036346;28;20022;-74
2022/11/24 01:40:46;;;;;;;39.70;17.85;;;0.40;99.90;;;;;;5035079;28;20032;-68
2022/11/24 01:43:20;;;;;;;42.78;18.55;;;0.30;99.90;;;;;;5036278;28;20403;-74
2022/11/24 01:45:46;;;;;;;36.30;18.25;;;0.30;99.90;;;;;;5036217;28;20017;-74
2022/11/24 01:48:37;;;;;;;37.85;19.45;;;0.30;99.90;;;;;;5036063;28;20514;-74
2022/11/24 01:51:10;;;;;;;40.78;18.67;;;0.40;99.90;;;;;;5036269;28;20021;-73
2022/11/24 01:53:38;;;;;;;35.85;18.38;;;0.40;99.90;;;;;;5036104;28;20021;-67
2022/11/24 01:56:05;;;;;;;45.67;20.80;;;0.40;99.90;;;;;;5036119;28;20065;-68
2022/11/24 01:58:34;;;;;;;40.10;19.58;;;0.40;99.90;;;;;;5034690;28;20483;-68
2022/11/24 02:01:00;;;;;;;47.38;20.63;;;0.40;99.90;;;;;;5036002;28;20025;-67
2022/11/24 02:03:32;;;;;;;41.85;18.83;;;0.40;99.90;;;;;;5035729;28;20041;-74
2022/11/24 02:06:21;;;;;;;67.33;27.60;;;0.40;99.90;;;;;;5034714;28;20387;-74
2022/11/24 02:09:01;;;;;;;94.05;38.53;;;0.30;99.90;;;;;;5074162;28;20294;-74
2022/11/24 02:11:32;;;;;;;133.57;53.80;;;0.40;99.90;;;;;;5071667;28;20474;-74
2022/11/24 02:13:58;;;;;;;83.57;35.33;;;0.40;99.90;;;;;;5055609;28;20048;-74
2022/11/24 02:16:24;;;;;;;42.47;19.90;;;0.30;99.90;;;;;;5054417;28;20021;-74
2022/11/24 02:18:50;;;;;;;39.90;17.65;;;0.30;99.90;;;;;;5054840;28;20025;-74
2022/11/24 02:21:15;;;;;;;60.22;27.23;;;0.30;99.90;;;;;;5054414;28;20032;-68
2022/11/24 02:23:44;;;;;;;59.75;27.77;;;0.30;99.90;;;;;;5055435;28;20115;-74
2022/11/24 02:26:40;;;;;;;54.97;23.55;;;0.30;99.90;;;;;;5055719;28;20025;-74
2022/11/24 02:29:07;;;;;;;44.72;21.55;;;0.40;99.90;;;;;;5050852;28;20099;-67
2022/11/24 02:31:33;;;;;;;44.80;20.30;;;0.40;99.90;;;;;;5055216;28;20021;-68
2022/11/24 02:33:58;;;;;;;44.10;18.80;;;0.40;99.90;;;;;;5055176;28;20029;-75
2022/11/24 02:36:24;;;;;;;39.03;18.40;;;0.40;99.90;;;;;;5053977;28;20376;-74
2022/11/24 02:38:49;;;;;;;37.97;18.08;;;0.40;99.90;;;;;;5055380;28;20060;-74
2022/11/24 02:41:21;;;;;;;40.13;16.45;;;0.40;99.90;;;;;;5055253;28;20463;-67
2022/11/24 02:43:55;;;;;;;40.85;17.08;;;0.40;99.90;;;;;;5055014;28;20069;-67
2022/11/24 02:46:20;;;;;;;42.63;20.27;;;0.40;99.90;;;;;;5055090;28;20024;-74
2022/11/24 02:48:46;;;;;;;52.90;23.52;;;0.40;99.90;;;;;;5055019;28;20028;-68
2022/11/24 02:51:12;;;;;;;43.13;19.98;;;0.40;99.90;;;;;;5053634;28;20449;-74
2022/11/24 02:53:37;;;;;;;38.78;18.42;;;0.40;99.90;;;;;;5054843;28;20021;-68
2022/11/24 02:56:03;;;;;;;44.25;18.83;;;0.40;99.90;;;;;;5054714;28;20025;-74
2022/11/24 02:58:29;;;;;;;34.33;16.63;;;0.40;99.90;;;;;;5054887;28;20061;-74
2022/11/24 03:00:56;;;;;;;36.05;16.42;;;0.40;99.90;;;;;;5053422;28;20593;-73
2022/11/24 03:03:23;;;;;;;42.85;17.75;;;0.40;99.90;;;;;;5054645;28;20044;-73
2022/11/24 03:05:48;;;;;;;36.47;16.58;;;0.40;99.90;;;;;;5054644;28;20473;-67
2022/11/24 03:08:14;;;;;;;34.95;16.60;;;0.40;99.90;;;;;;5054630;28;20028;-69
2022/11/24 03:10:40;;;;;;;39.80;17.27;;;0.40;99.90;;;;;;5054648;28;20052;-73
2022/11/24 03:13:06;;;;;;;36.13;17.27;;;0.40;99.90;;;;;;5054551;28;20021;-74
2022/11/24 03:15:31;;;;;;;32.25;16.90;;;0.40;99.90;;;;;;5062367;28;20024;-67
2022/11/24 03:17:57;;;;;;;37.65;18.23;;;0.40;99.90;;;;;;5074484;28;20032;-74
2022/11/24 03:20:23;;;;;;;38.70;17.02;;;0.40;99.90;;;;;;5074270;28;20048;-74
2022/11/24 03:22:49;;;;;;;42.08;18.40;;;0.40;99.90;;;;;;5073102;28;20025;-69
2022/11/24 03:25:14;;;;;;;37.55;18.35;;;0.40;99.90;;;;;;5074284;28;20025;-68
2022/11/24 03:27:40;;;;;;;35.97;17.10;;;0.40;99.90;;;;;;5074305;28;20100;-68
2022/11/24 03:30:06;;;;;;;36.80;18.00;;;0.40;99.90;;;;;;5072089;28;20016;-74
2022/11/24 03:32:32;;;;;;;38.45;18.70;;;0.40;99.90;;;;;;5074104;28;20032;-74
2022/11/24 03:34:58;;;;;;;39.63;19.45;;;0.40;99.90;;;;;;5074138;28;20032;-68
2022/11/24 03:37:23;;;;;;;36.10;15.85;;;0.40;99.90;;;;;;5072847;28;20063;-74
2022/11/24 03:39:49;;;;;;;34.05;17.42;;;0.40;99.90;;;;;;5073963;28;20089;-68
2022/11/24 03:42:15;;;;;;;40.78;17.80;;;0.40;99.90;;;;;;5073739;28;20032;-67
2022/11/24 03:44:41;;;;;;;32.70;18.27;;;0.40;99.90;;;;;;5072551;28;20036;-67
2022/11/24 03:47:06;;;;;;;37.75;17.40;;;0.40;99.90;;;;;;5073942;28;20017;-74
2022/11/24 03:49:32;;;;;;;35.35;17.77;;;0.40;99.90;;;;;;5073781;28;20024;-68
2022/11/24 03:51:58;;;;;;;36.08;17.10;;;0.40;99.90;;;;;;5072404;28;20534;-69
2022/11/24 03:54:23;;;;;;;33.65;16.30;;;0.40;99.90;;;;;;5073778;28;20066;-74
2022/11/24 03:56:49;;;;;;;41.85;19.35;;;0.40;99.90;;;;;;5072389;28;20485;-68
2022/11/24 03:59:14;;;;;;;34.47;15.93;;;0.40;99.90;;;;;;5072413;28;20059;-75
2022/11/24 04:01:40;;;;;;;29.00;16.38;;;0.40;99.90;;;;;;5073598;28;20044;-68
2022/11/24 04:04:06;;;;;;;35.05;15.93;;;0.40;99.90;;;;;;5073469;28;20037;-74
2022/11/24 04:06:31;;;;;;;33.15;17.27;;;0.40;99.90;;;;;;5072143;28;20060;-74
2022/11/24 04:08:59;;;;;;;33.03;15.77;;;0.40;99.90;;;;;;5052314;28;20017;-74
2022/11/24 04:14:08;;;;;;;34.90;16.27;;;0.40;99.90;;;;;;5053574;28;20074;-74
2022/11/24 04:16:34;;;;;;;30.08;15.05;;;0.40;99.90;;;;;;5053300;28;20053;-74
2022/11/24 04:18:59;;;;;;;28.92;14.70;;;0.40;99.90;;;;;;5052271;28;20048;-74
2022/11/24 04:21:25;;;;;;;32.28;16.05;;;0.40;99.90;;;;;;5053045;28;20021;-69
2022/11/24 04:23:51;;;;;;;33.65;16.88;;;0.40;99.90;;;;;;5051876;28;20071;-74
2022/11/24 04:26:16;;;;;;;33.92;15.55;;;0.40;99.90;;;;;;5053176;28;20032;-74
2022/11/24 04:28:42;;;;;;;34.50;16.42;;;0.40;99.90;;;;;;5053297;28;20066;-74
2022/11/24 04:31:07;;;;;;;36.25;17.13;;;0.40;99.90;;;;;;5053180;28;20036;-68
2022/11/24 04:33:33;;;;;;;34.67;17.38;;;0.40;99.90;;;;;;5053164;28;20086;-68
2022/11/24 04:35:59;;;;;;;35.00;16.35;;;0.40;99.90;;;;;;5051794;28;20045;-74
2022/11/24 04:38:24;;;;;;;40.22;16.20;;;0.40;99.90;;;;;;5053166;28;20024;-74
2022/11/24 04:40:50;;;;;;;41.97;17.35;;;0.40;99.90;;;;;;5052865;28;20502;-67
2022/11/24 04:43:17;;;;;;;42.88;20.25;;;0.40;99.90;;;;;;5052797;28;20090;-67
2022/11/24 04:45:43;;;;;;;43.33;18.58;;;0.30;99.90;;;;;;5053045;28;20021;-74
2022/11/24 04:48:08;;;;;;;45.90;19.50;;;0.30;99.90;;;;;;5053121;28;20087;-74
2022/11/24 04:50:35;;;;;;;49.38;19.58;;;0.30;99.90;;;;;;5051819;28;20390;-74
2022/11/24 04:53:01;;;;;;;50.83;20.00;;;0.30;99.90;;;;;;5051384;28;20013;-74
2022/11/24 04:55:26;;;;;;;56.10;25.63;;;0.30;99.90;;;;;;5052992;28;20028;-67
2022/11/24 04:57:52;;;;;;;49.88;21.77;;;0.30;99.90;;;;;;5052967;28;20048;-68
2022/11/24 05:00:18;;;;;;;47.80;22.60;;;0.30;99.90;;;;;;5052926;28;20025;-67
2022/11/24 05:02:43;;;;;;;44.78;21.83;;;0.30;99.90;;;;;;5052727;28;20040;-69
2022/11/24 05:05:09;;;;;;;47.65;19.88;;;0.30;99.90;;;;;;5052936;28;20021;-74
2022/11/24 05:07:34;;;;;;;51.70;21.58;;;0.20;99.90;;;;;;5062979;28;20489;-68
2022/11/24 05:12:52;;;;;;;42.22;18.45;;;0.30;99.90;;;;;;5057217;28;20098;-67
2022/11/24 05:15:18;;;;;;;48.83;21.27;;;0.20;99.90;;;;;;5052845;28;20107;-67
2022/11/24 05:17:43;;;;;;;42.35;19.80;;;0.20;99.90;;;;;;5052744;28;20104;-67
2022/11/24 05:20:09;;;;;;;50.70;20.45;;;0.20;99.90;;;;;;5052527;28;20025;-74
2022/11/24 05:22:35;;;;;;;53.28;21.20;;;0.20;99.90;;;;;;5052604;28;20454;-74
2022/11/24 05:25:00;;;;;;;42.95;18.75;;;0.20;99.90;;;;;;5049820;28;20020;-74
2022/11/24 05:27:26;;;;;;;47.70;18.60;;;0.20;99.90;;;;;;5046884;28;20123;-74
2022/11/24 05:29:51;;;;;;;46.65;18.27;;;0.20;99.90;;;;;;5066433;28;20074;-74
2022/11/24 05:32:17;;;;;;;48.50;19.15;;;0.20;99.90;;;;;;5072476;28;20496;-74
2022/11/24 05:34:43;;;;;;;47.10;18.15;;;0.20;99.90;;;;;;5066151;28;20513;-68
2022/11/24 05:37:09;;;;;;;40.83;18.67;;;0.20;99.90;;;;;;5072023;28;20035;-74
2022/11/24 05:39:35;;;;;;;46.70;19.08;;;0.20;99.90;;;;;;5072361;28;20048;-69
2022/11/24 05:42:39;;;;;;;46.53;18.77;;;0.20;99.90;;;;;;5072029;28;20033;-74
2022/11/24 05:44:48;;;;;;;45.47;17.50;;;0.20;99.90;;;;;;5069741;28;20108;-69
2022/11/24 05:47:14;;;;;;;49.55;17.55;;;0.10;99.90;;;;;;5072234;28;20108;-74
2022/11/24 05:49:39;;;;;;;47.13;17.63;;;0.20;99.90;;;;;;5072130;28;20037;-67
2022/11/24 05:52:05;;;;;;;45.75;19.52;;;0.10;99.90;;;;;;5072347;28;20020;-74
2022/11/24 05:54:31;;;;;;;59.53;19.90;;;0.10;99.90;;;;;;5074518;28;20013;-68
2022/11/24 05:56:56;;;;;;;47.45;18.40;;;0.10;99.90;;;;;;5074703;28;20429;-69
2022/11/24 05:59:22;;;;;;;44.88;18.17;;;0.10;99.90;;;;;;5073860;28;20028;-69
2022/11/24 06:01:47;;;;;;;47.20;19.38;;;0.10;99.90;;;;;;5062763;28;20025;-74
2022/11/24 06:04:13;;;;;;;47.78;19.63;;;0.10;99.90;;;;;;5074343;28;20520;-67
2022/11/24 06:06:39;;;;;;;44.83;17.67;;;0.10;99.90;;;;;;5063447;28;20588;-69
2022/11/24 06:09:04;;;;;;;42.05;17.30;;;0.10;99.90;;;;;;5071312;28;20109;-75
2022/11/24 06:11:30;;;;;;;43.13;16.90;;;0.00;99.90;;;;;;5059792;28;20032;-74
2022/11/24 06:13:55;;;;;;;41.13;15.93;;;0.00;99.90;;;;;;5063984;28;20479;-74
2022/11/24 06:16:21;;;;;;;45.22;20.00;;;0.00;99.90;;;;;;5049267;28;20107;-68
2022/11/24 06:18:47;;;;;;;45.33;17.13;;;0.00;99.90;;;;;;5075450;28;20102;-69
2022/11/24 06:21:12;;;;;;;41.10;19.58;;;0.00;99.90;;;;;;5062047;28;20113;-74
2022/11/24 06:23:39;;;;;;;40.08;18.02;;;0.00;99.90;;;;;;5070389;28;20040;-75
2022/11/24 06:26:04;;;;;;;50.53;18.73;;;0.00;99.90;;;;;;5058557;28;20038;-75
2022/11/24 06:28:30;;;;;;;50.35;20.40;;;0.00;99.90;;;;;;5068033;28;20107;-69
2022/11/24 06:31:03;;;;;;;46.95;19.73;;;0.00;99.90;;;;;;5066892;28;20025;-73
2022/11/24 06:33:35;;;;;;;42.40;18.92;;;0.00;99.90;;;;;;5063548;28;20033;-74
2022/11/24 06:36:06;;;;;;;50.60;19.73;;;0.00;99.90;;;;;;5051924;28;20017;-74
2022/11/24 06:38:34;;;;;;;61.70;24.33;;;0.00;99.90;;;;;;5055721;28;20033;-74
2022/11/24 06:41:05;;;;;;;52.15;22.17;;;0.00;99.90;;;;;;5061280;28;20421;-75
2022/11/24 06:43:32;;;;;;;60.17;22.30;;;0.00;99.90;;;;;;5052208;28;20052;-68
2022/11/24 06:45:58;;;;;;;53.60;21.42;;;0.10;99.90;;;;;;5053137;28;20069;-74
2022/11/24 06:48:25;;;;;;;88.20;32.65;;;0.10;99.90;;;;;;5049071;28;20049;-69
2022/11/24 06:50:51;;;;;;;69.32;30.33;;;0.10;99.90;;;;;;5036806;28;20476;-74
2022/11/24 06:53:16;;;;;;;179.27;64.10;;;0.10;99.90;;;;;;5043882;28;20021;-68
2022/11/24 06:55:44;;;;;;;85.90;31.95;;;0.10;99.90;;;;;;5044748;28;20020;-69
2022/11/24 06:58:09;;;;;;;245.55;88.70;;;0.10;99.90;;;;;;5043109;28;20013;-69
2022/11/24 07:00:36;;;;;;;171.50;59.13;;;0.10;99.90;;;;;;5043711;28;20033;-68
2022/11/24 07:03:01;;;;;;;178.45;62.22;;;0.00;99.90;;;;;;5044457;28;20033;-68
2022/11/24 07:05:27;;;;;;;172.18;64.35;;;0.00;99.90;;;;;;5037537;28;20025;-73
2022/11/24 07:07:52;;;;;;;96.55;39.97;;;0.00;99.90;;;;;;5066619;28;20036;-68
2022/11/24 07:10:18;;;;;;;73.53;29.67;;;0.00;99.90;;;;;;5074556;28;20025;-68
2022/11/24 07:12:43;;;;;;;77.63;28.08;;;0.00;99.90;;;;;;5054870;28;20390;-74
2022/11/24 07:15:10;;;;;;;69.22;29.40;;;0.00;99.90;;;;;;5053323;28;20017;-68
2022/11/24 07:17:36;;;;;;;94.82;38.38;;;0.00;99.90;;;;;;5042861;28;20022;-68
2022/11/24 07:20:03;;;;;;;63.42;26.65;;;0.10;99.90;;;;;;5048137;28;20021;-68
2022/11/24 07:22:29;;;;;;;80.85;31.92;;;0.10;99.90;;;;;;5053900;28;20456;-73
2022/11/24 07:24:54;;;;;;;63.47;26.17;;;0.10;99.90;;;;;;5073958;28;20020;-73
2022/11/24 07:27:20;;;;;;;57.88;26.35;;;0.10;99.90;;;;;;5073062;28;20024;-73
2022/11/24 07:29:46;;;;;;;62.55;27.92;;;0.20;99.90;;;;;;5074143;28;20508;-67
2022/11/24 07:32:11;;;;;;;56.83;25.33;;;0.20;99.90;;;;;;5074112;28;20039;-69
2022/11/24 07:34:37;;;;;;;93.50;40.65;;;0.20;99.90;;;;;;5074103;28;20072;-73
2022/11/24 07:37:02;;;;;;;77.63;31.15;;;0.20;99.90;;;;;;5057952;28;20032;-74
2022/11/24 07:39:28;;;;;;;70.97;29.67;;;0.20;99.90;;;;;;5039407;28;20064;-74
2022/11/24 07:41:53;;;;;;;67.85;26.77;;;0.20;99.90;;;;;;5043668;28;20467;-69
2022/11/24 07:44:19;;;;;;;66.15;28.65;;;0.20;99.90;;;;;;5041762;28;20092;-68
2022/11/24 07:46:45;;;;;;;64.20;26.40;;;0.20;99.90;;;;;;5044085;28;20027;-69
2022/11/24 07:49:10;;;;;;;56.92;25.92;;;0.20;99.90;;;;;;5042837;28;20025;-75
2022/11/24 07:51:36;;;;;;;59.75;27.02;;;0.30;99.90;;;;;;5049315;28;20022;-75
2022/11/24 07:54:02;;;;;;;63.15;27.65;;;0.30;99.90;;;;;;5046612;28;20028;-74
2022/11/24 07:56:27;;;;;;;48.78;23.42;;;0.30;99.90;;;;;;5053504;28;20025;-75
2022/11/24 07:58:53;;;;;;;54.53;23.38;;;0.30;99.90;;;;;;5053263;28;20467;-75
2022/11/24 08:01:19;;;;;;;54.28;24.60;;;0.30;99.90;;;;;;5053595;28;20033;-68
2022/11/24 08:03:45;;;;;;;45.03;21.65;;;0.30;99.90;;;;;;5051982;28;20490;-74
2022/11/24 08:06:12;;;;;;;45.83;22.80;;;0.40;99.90;;;;;;5053419;28;20036;-67
2022/11/24 08:08:37;;;;;;;49.90;23.52;;;0.40;99.90;;;;;;5073033;28;20021;-75
2022/11/24 08:11:08;;;;;;;47.72;21.90;;;0.40;99.90;;;;;;5067339;28;20099;-74
2022/11/24 08:13:35;;;;;;;53.05;22.70;;;0.40;99.90;;;;;;5052734;28;20023;-67
2022/11/24 08:16:05;;;;;;;44.58;20.80;;;0.50;99.90;;;;;;5051500;28;20485;-68
2022/11/24 08:18:31;;;;;;;42.88;18.55;;;0.40;99.90;;;;;;5051795;28;20033;-68
2022/11/24 08:20:58;;;;;;;42.47;18.50;;;0.40;99.90;;;;;;5052254;28;20025;-68
2022/11/24 08:23:24;;;;;;;43.50;19.15;;;0.40;99.90;;;;;;5051958;28;20033;-73
2022/11/24 08:25:50;;;;;;;42.35;17.73;;;0.40;99.90;;;;;;5051086;28;20079;-68
2022/11/24 08:28:15;;;;;;;40.28;17.98;;;0.50;99.90;;;;;;5051246;28;20100;-68
2022/11/24 08:30:41;;;;;;;39.38;16.92;;;0.50;99.90;;;;;;5052356;28;20040;-75
2022/11/24 08:33:06;;;;;;;35.28;17.73;;;0.50;99.90;;;;;;5052187;28;20017;-74
2022/11/24 08:35:36;;;;;;;45.17;21.25;;;0.50;99.90;;;;;;5052621;28;20025;-74
2022/11/24 08:38:02;;;;;;;38.70;19.10;;;0.50;99.90;;;;;;5051580;28;20021;-75
2022/11/24 08:40:27;;;;;;;44.97;22.25;;;0.50;99.90;;;;;;5051659;28;20032;-68
2022/11/24 08:42:59;;;;;;;85.88;38.45;;;0.50;99.90;;;;;;5053026;28;20080;-72
2022/11/24 08:45:26;;;;;;;56.53;26.55;;;0.50;99.90;;;;;;5052865;28;20037;-68
2022/11/24 08:47:55;;;;;;;48.75;24.27;;;0.50;99.90;;;;;;5051610;28;20512;-67
2022/11/24 08:50:23;;;;;;;75.80;35.00;;;0.50;99.90;;;;;;5052658;28;20035;-75
2022/11/24 08:52:51;;;;;;;120.95;55.88;;;0.50;99.90;;;;;;5051442;28;20386;-68
2022/11/24 08:55:17;;;;;;;87.93;36.28;;;0.50;99.90;;;;;;5052845;28;20534;-74
2022/11/24 08:57:42;;;;;;;70.43;26.02;;;0.50;99.90;;;;;;5052784;28;20017;-75
2022/11/24 09:00:09;;;;;;;47.45;20.98;;;0.40;99.90;;;;;;5051424;28;20028;-68
2022/11/24 09:02:34;;;;;;;57.08;25.02;;;0.40;99.90;;;;;;5052793;28;20036;-74
2022/11/24 09:05:00;;;;;;;65.20;24.20;;;0.40;99.90;;;;;;5051415;28;20391;-71
2022/11/24 09:07:26;;;;;;;51.95;22.20;;;0.40;99.90;;;;;;5052714;28;20021;-74
2022/11/24 09:09:51;;;;;;;42.40;20.95;;;0.40;99.90;;;;;;5052648;28;20091;-73
2022/11/24 09:12:17;;;;;;;373.02;163.52;;;0.30;99.90;;;;;;5052626;28;20025;-75
2022/11/24 09:14:42;;;;;;;299.08;122.80;;;0.40;99.90;;;;;;5051210;28;20482;-67
2022/11/24 09:17:08;;;;;;;136.10;50.53;;;0.30;99.90;;;;;;5052559;28;20025;-67
2022/11/24 09:19:34;;;;;;;120.60;36.95;;;0.30;99.90;;;;;;5052491;28;20033;-67
2022/11/24 09:21:59;;;;;;;61.92;24.75;;;0.40;99.90;;;;;;5052429;28;20530;-74
2022/11/24 09:24:25;;;;;;;52.65;22.27;;;0.40;99.90;;;;;;5052443;28;20025;-68
2022/11/24 09:26:52;;;;;;;71.45;28.42;;;0.40;99.90;;;;;;5052347;28;20025;-68
2022/11/24 09:29:18;;;;;;;49.13;22.38;;;0.40;99.90;;;;;;5055204;28;20033;-67
2022/11/24 09:31:44;;;;;;;47.67;21.63;;;0.40;99.90;;;;;;5054977;28;20017;-74
2022/11/24 09:34:12;;;;;;;78.18;28.60;;;0.30;99.90;;;;;;5055788;28;20092;-74
2022/11/24 09:36:38;;;;;;;57.78;24.75;;;0.40;99.90;;;;;;5054455;28;20017;-75
2022/11/24 09:39:03;;;;;;;50.17;21.63;;;0.40;99.90;;;;;;5054812;28;20367;-74
2022/11/24 09:41:53;;;;;;;61.60;25.20;;;0.40;99.90;;;;;;5054387;28;20497;-73
2022/11/24 09:44:56;;;;;;;47.72;21.27;;;0.40;99.90;;;;;;5054441;28;20520;-74
2022/11/24 09:47:42;;;;;;;50.05;24.20;;;0.50;99.90;;;;;;5055255;28;20033;-67
2022/11/24 09:50:25;;;;;;;33.30;16.58;;;0.60;99.90;;;;;;5053443;28;20021;-68
2022/11/24 09:53:00;;;;;;;68.15;26.67;;;0.50;99.90;;;;;;5053520;28;20021;-68
2022/11/24 09:55:46;;;;;;;85.75;34.75;;;0.60;99.90;;;;;;5052503;28;20068;-74
2022/11/24 09:58:14;;;;;;;114.70;42.65;;;0.60;99.90;;;;;;5052148;28;20033;-68
2022/11/24 10:00:40;;;;;;;76.05;30.73;;;0.60;99.90;;;;;;5052784;28;20017;-75
2022/11/24 10:03:36;;;;;;;52.50;25.50;;;0.60;99.90;;;;;;5052578;28;20422;-74
2022/11/24 10:06:12;;;;;;;50.30;25.23;;;0.60;99.90;;;;;;5040571;28;20041;-73
2022/11/24 10:08:50;;;;;;;124.93;50.42;;;0.70;99.90;;;;;;5034478;28;20041;-67
2022/11/24 10:11:27;;;;;;;109.15;50.88;;;0.70;99.90;;;;;;5039088;28;20025;-73
2022/11/24 10:14:12;;;;;;;44.28;22.33;;;0.80;99.90;;;;;;5054584;28;20025;-67
2022/11/24 10:16:43;;;;;;;43.58;22.95;;;0.70;99.90;;;;;;5055665;28;20032;-73
2022/11/24 10:19:42;;;;;;;49.30;24.75;;;0.70;99.90;;;;;;5053891;28;20024;-67
2022/11/24 10:22:08;;;;;;;79.07;35.90;;;0.70;99.90;;;;;;5053622;28;20443;-73
2022/11/24 10:24:47;;;;;;;63.03;29.00;;;0.80;99.90;;;;;;5053620;28;20103;-67
2022/11/24 10:27:16;;;;;;;54.03;25.95;;;0.70;99.90;;;;;;5051819;28;20467;-67
2022/11/24 10:29:42;;;;;;;69.43;29.60;;;0.70;99.90;;;;;;5051961;28;20161;-73
2022/11/24 10:32:25;;;;;;;64.30;30.35;;;0.70;99.90;;;;;;5053265;28;20021;-68
2022/11/24 10:34:54;;;;;;;129.80;54.80;;;0.70;99.90;;;;;;5055319;28;20025;-73
2022/11/24 10:37:25;;;;;;;61.42;29.88;;;0.70;99.90;;;;;;5055230;28;20386;-73
2022/11/24 10:40:07;;;;;;;72.45;31.88;;;0.70;99.90;;;;;;5054979;28;20372;-68
2022/11/24 10:42:37;;;;;;;69.23;31.50;;;0.70;99.90;;;;;;5055065;28;20061;-73
2022/11/24 10:45:09;;;;;;;44.83;22.75;;;0.70;99.90;;;;;;5055179;28;20067;-68
2022/11/24 10:47:34;;;;;;;30.40;17.30;;;0.70;99.90;;;;;;5053793;28;20048;-73
2022/11/24 10:50:22;;;;;;;33.15;18.05;;;0.60;99.90;;;;;;5055014;28;20060;-70
2022/11/24 10:53:09;;;;;;;29.33;16.48;;;0.70;99.90;;;;;;5054828;28;20025;-73
2022/11/24 10:55:53;;;;;;;29.10;15.23;;;0.60;99.90;;;;;;5055018;28;20060;-72
2022/11/24 10:58:36;;;;;;;29.38;15.27;;;0.60;99.90;;;;;;5054818;28;20021;-73
2022/11/24 11:01:20;;;;;;;26.67;14.25;;;0.60;99.90;;;;;;5054974;28;20040;-73
2022/11/24 11:03:51;;;;;;;26.55;15.55;;;0.60;99.90;;;;;;5053642;28;20444;-67
2022/11/24 11:06:21;;;;;;;27.92;14.95;;;0.60;99.90;;;;;;5054876;28;20025;-72
2022/11/24 11:08:47;;;;;;;29.33;16.83;;;0.60;99.90;;;;;;5074900;28;20025;-67
2022/11/24 11:11:27;;;;;;;24.50;14.05;;;0.60;99.90;;;;;;5069633;28;20109;-73
2022/11/24 11:13:55;;;;;;;28.95;15.43;;;0.60;99.90;;;;;;5054623;28;20025;-67
2022/11/24 11:16:35;;;;;;;25.35;13.65;;;0.70;99.90;;;;;;5054472;28;20021;-73
2022/11/24 11:19:03;;;;;;;26.02;14.30;;;0.70;99.90;;;;;;5054613;28;20021;-67
2022/11/24 11:21:37;;;;;;;28.10;14.65;;;0.70;99.90;;;;;;5053118;28;20029;-68
2022/11/24 11:24:13;;;;;;;25.13;14.38;;;0.70;99.90;;;;;;5045717;28;20111;-74
2022/11/24 11:26:41;;;;;;;29.20;15.80;;;0.70;99.90;;;;;;5068346;28;20565;-74
2022/11/24 11:29:06;;;;;;;23.60;14.82;;;0.60;99.90;;;;;;5072586;28;20029;-74
2022/11/24 11:31:33;;;;;;;34.60;17.33;;;0.60;99.90;;;;;;5063526;28;20017;-74
2022/11/24 11:34:13;;;;;;;28.77;15.50;;;0.60;99.90;;;;;;5072098;28;20037;-75
2022/11/24 11:36:43;;;;;;;19.50;11.98;;;0.60;99.90;;;;;;5039698;28;20028;-74
2022/11/24 11:39:29;;;;;;;20.20;12.65;;;0.50;99.90;;;;;;5042764;28;20032;-74
2022/11/24 11:42:29;;;;;;;17.38;11.73;;;0.50;99.90;;;;;;5042287;28;20354;-74
2022/11/24 11:45:04;;;;;;;21.23;13.40;;;0.50;99.90;;;;;;5039471;28;20041;-74
2022/11/24 11:47:44;;;;;;;19.52;11.93;;;0.60;99.90;;;;;;5045220;28;20031;-74
2022/11/24 11:50:15;;;;;;;26.45;14.65;;;0.60;99.90;;;;;;5043716;28;20032;-74
2022/11/24 11:52:49;;;;;;;35.08;19.05;;;0.60;99.90;;;;;;5044530;28;20047;-74
2022/11/24 11:55:40;;;;;;;23.92;13.80;;;0.60;99.90;;;;;;5045035;28;20021;-74
2022/11/24 11:58:30;;;;;;;35.22;21.80;;;0.60;99.90;;;;;;5041215;28;20527;-74
2022/11/24 12:01:32;;;;;;;30.73;17.02;;;0.60;99.90;;;;;;5043421;28;20503;-74
2022/11/24 12:04:20;;;;;;;26.70;14.63;;;0.60;99.90;;;;;;5046132;28;20036;-74
2022/11/24 12:06:45;;;;;;;23.85;15.93;;;0.50;99.90;;;;;;5045285;28;20030;-74
2022/11/24 12:09:17;;;;;;;24.20;14.77;;;0.50;99.90;;;;;;5049222;28;20040;-67
2022/11/24 12:11:58;;;;;;;41.05;21.48;;;0.40;99.90;;;;;;5045006;28;20025;-67
2022/11/24 12:14:38;;;;;;;25.05;14.43;;;0.40;99.90;;;;;;5047062;28;20034;-68
2022/11/24 12:17:37;;;;;;;21.88;12.68;;;0.40;99.90;;;;;;5042206;28;20022;-67
2022/11/24 12:20:21;;;;;;;27.92;17.98;;;0.30;99.90;;;;;;5040607;28;20368;-67
2022/11/24 12:23:12;;;;;;;31.48;16.50;;;0.30;99.90;;;;;;5039976;28;20042;-68
2022/11/24 12:26:05;;;;;;;28.70;16.52;;;0.30;99.90;;;;;;5041312;28;20489;-67
2022/11/24 12:28:43;;;;;;;61.83;36.80;;;0.30;99.90;;;;;;5040960;28;20490;-68
2022/11/24 12:31:17;;;;;;;126.03;60.50;;;0.30;99.90;;;;;;5040737;28;20044;-68
2022/11/24 12:34:14;;;;;;;144.38;69.40;;;0.30;99.90;;;;;;5042184;28;20067;-68
2022/11/24 12:37:05;;;;;;;185.02;79.85;;;0.40;99.90;;;;;;5044097;28;20032;-68
2022/11/24 12:39:49;;;;;;;190.50;75.75;;;0.40;99.90;;;;;;5038970;28;20479;-68
2022/11/24 12:42:25;;;;;;;205.25;96.60;;;0.30;99.90;;;;;;5038130;28;20029;-68
2022/11/24 12:45:06;;;;;;;148.10;63.65;;;0.30;99.90;;;;;;5042402;28;20399;-68
2022/11/24 12:47:43;;;;;;;89.78;37.28;;;0.40;99.90;;;;;;5042617;28;20104;-68
2022/11/24 12:50:14;;;;;;;96.20;42.70;;;0.30;99.90;;;;;;5048968;28;20037;-68
2022/11/24 12:53:01;;;;;;;31.85;17.40;;;0.40;99.90;;;;;;5041367;28;20383;-67
2022/11/24 12:55:28;;;;;;;102.07;45.55;;;0.40;99.90;;;;;;5043259;28;20014;-75